Time;durP1;ratioP1;P1;durP2;ratioP2;P2;SDS_P1;SDS_P2;PMS_P1;PMS_P2;Temp;Humidity;BMP_temperature;BMP_pressure;BME280_temperature;BME280_humidity;BME280_pressure;Samples;Min_cycle;Max_cycle;Signal;HPM_P1;HPM_P2
2021/11/24 00:02:26;;;;;;;15.35;10.25;;;;;;;0.84;66.04;97530.50;5013256;28;20510;-76
2021/11/24 00:04:54;;;;;;;18.63;10.00;;;;;;;0.76;66.27;97518.13;5013597;28;20057;-77
2021/11/24 00:07:21;;;;;;;16.60;10.75;;;;;;;0.78;68.65;97527.38;5014829;28;20058;-76
2021/11/24 00:09:49;;;;;;;18.17;10.52;;;;;;;0.85;68.82;97521.84;5014741;28;20057;-76
2021/11/24 00:12:16;;;;;;;16.50;10.55;;;;;;;0.89;69.15;97524.13;5013222;28;20060;-76
2021/11/24 00:14:43;;;;;;;18.20;11.52;;;;;;;0.90;67.76;97517.25;5013257;28;20057;-76
2021/11/24 00:17:12;;;;;;;15.93;11.57;;;;;;;0.89;68.75;97526.69;5012851;28;20054;-76
2021/11/24 00:19:40;;;;;;;16.20;11.07;;;;;;;0.86;67.46;97514.06;5012906;28;20046;-76
2021/11/24 00:22:07;;;;;;;15.15;10.77;;;;;;;0.80;66.58;97512.69;5012974;28;20053;-79
2021/11/24 00:24:36;;;;;;;16.45;10.90;;;;;;;0.73;66.75;97510.63;5013481;28;20050;-75
2021/11/24 00:27:03;;;;;;;14.27;9.73;;;;;;;0.74;67.28;97507.13;5012720;28;20083;-75
2021/11/24 00:29:31;;;;;;;13.48;9.88;;;;;;;0.77;67.20;97504.38;5012928;28;20053;-75
2021/11/24 00:31:59;;;;;;;15.18;9.52;;;;;;;0.80;67.73;97507.56;5004929;28;20060;-76
2021/11/24 00:34:28;;;;;;;13.25;9.70;;;;;;;0.85;68.23;97503.88;5012526;28;20503;-76
2021/11/24 00:36:55;;;;;;;13.38;9.40;;;;;;;0.79;66.06;97502.53;5013018;28;20046;-76
2021/11/24 00:39:23;;;;;;;13.98;10.13;;;;;;;0.73;66.23;97510.63;5014011;28;20046;-79
2021/11/24 00:41:50;;;;;;;15.50;9.98;;;;;;;0.68;65.93;97503.22;5014651;28;20053;-76
2021/11/24 00:44:18;;;;;;;13.10;9.63;;;;;;;0.68;67.57;97504.94;5014505;28;20069;-76
2021/11/24 00:46:46;;;;;;;13.23;9.30;;;;;;;0.70;67.50;97513.38;5014121;28;20050;-77
2021/11/24 00:49:13;;;;;;;16.33;10.27;;;;;;;0.69;68.78;97504.84;5014287;28;20049;-76
2021/11/24 00:51:42;;;;;;;16.70;10.55;;;;;;;0.66;67.23;97505.06;5014385;28;20053;-76
2021/11/24 00:54:10;;;;;;;17.13;10.85;;;;;;;0.63;68.35;97502.66;5013297;28;20054;-75
2021/11/24 00:56:37;;;;;;;15.13;10.82;;;;;;;0.66;67.93;97506.81;5014275;28;20057;-75
2021/11/24 00:59:05;;;;;;;16.08;10.98;;;;;;;0.66;68.42;97499.94;5014264;28;20050;-75
2021/11/24 01:01:33;;;;;;;16.55;10.60;;;;;;;0.70;69.04;97500.53;5014101;28;20065;-76
2021/11/24 01:04:01;;;;;;;17.58;11.77;;;;;;;0.69;69.26;97507.41;5013996;28;20402;-76
2021/11/24 01:06:29;;;;;;;14.95;10.20;;;;;;;0.68;68.68;97507.50;5016519;28;20050;-80
2021/11/24 01:08:57;;;;;;;20.23;11.43;;;;;;;0.67;68.45;97505.88;5021323;28;20053;-78
2021/11/24 01:11:25;;;;;;;18.15;11.05;;;;;;;0.66;69.33;97504.25;5021317;28;20049;-76
2021/11/24 01:13:52;;;;;;;18.70;11.50;;;;;;;0.63;66.97;97500.09;5018725;28;20049;-76
2021/11/24 01:16:20;;;;;;;14.50;10.65;;;;;;;0.59;67.29;97498.66;5013956;28;20046;-76
2021/11/24 01:18:48;;;;;;;15.98;11.75;;;;;;;0.57;67.23;97495.38;5014005;28;20046;-76
2021/11/24 01:21:15;;;;;;;13.43;10.00;;;;;;;0.55;67.63;97497.22;5014097;28;20050;-78
2021/11/24 01:23:43;;;;;;;16.40;11.15;;;;;;;0.58;68.54;97494.44;5016241;28;20064;-80
2021/11/24 01:26:12;;;;;;;19.95;12.93;;;;;;;0.53;66.36;97496.50;5021276;28;20049;-77
2021/11/24 01:28:40;;;;;;;19.50;12.98;;;;;;;0.38;65.74;97496.53;5019179;28;20065;-76
2021/11/24 01:31:07;;;;;;;20.88;13.35;;;;;;;0.25;65.53;97485.38;5013575;28;20057;-76
2021/11/24 01:33:35;;;;;;;15.95;11.98;;;;;;;0.14;65.68;97490.34;5013797;28;20072;-75
2021/11/24 01:36:04;;;;;;;17.88;11.45;;;;;;;0.12;67.22;97482.75;5013255;28;20046;-76
2021/11/24 01:38:31;;;;;;;17.55;11.00;;;;;;;0.19;68.10;97480.63;5013461;28;20061;-76
2021/11/24 01:40:59;;;;;;;14.85;10.75;;;;;;;0.24;67.08;97478.63;5013409;28;20053;-75
2021/11/24 01:43:28;;;;;;;15.50;11.13;;;;;;;0.29;67.83;97480.88;5013102;28;20054;-76
2021/11/24 01:45:55;;;;;;;17.10;10.57;;;;;;;0.35;69.31;97471.06;5013264;28;20065;-76
2021/11/24 01:48:26;;;;;;;14.50;10.40;;;;;;;0.39;69.05;97472.53;5013144;28;20104;-77
2021/11/24 01:50:53;;;;;;;15.77;10.73;;;;;;;0.38;67.63;97465.72;5013263;28;20046;-76
2021/11/24 01:53:21;;;;;;;13.85;10.32;;;;;;;0.30;67.50;97467.94;5013024;28;20046;-76
2021/11/24 01:55:49;;;;;;;17.33;10.65;;;;;;;0.22;66.48;97472.75;5012644;28;20054;-76
2021/11/24 01:58:17;;;;;;;14.02;9.75;;;;;;;0.12;66.12;97469.09;5013252;28;20522;-75
2021/11/24 02:00:46;;;;;;;13.88;9.65;;;;;;;0.00;66.01;97457.88;5013227;28;20049;-77
2021/11/24 02:03:13;;;;;;;16.80;10.95;;;;;;;-0.09;66.14;97460.97;5012875;28;20057;-75
2021/11/24 02:05:41;;;;;;;14.65;8.98;;;;;;;-0.12;66.36;97462.00;5012687;28;20419;-75
2021/11/24 02:08:08;;;;;;;15.43;10.13;;;;;;;-0.05;67.93;97452.19;5012814;28;20080;-75
2021/11/24 02:10:36;;;;;;;14.75;10.75;;;;;;;-0.02;67.77;97450.25;5012576;28;20057;-76
2021/11/24 02:13:04;;;;;;;13.52;9.52;;;;;;;-0.02;67.28;97449.44;5012917;28;20058;-75
2021/11/24 02:15:31;;;;;;;15.18;10.38;;;;;;;0.01;67.95;97438.97;5012845;28;20126;-76
2021/11/24 02:18:03;;;;;;;15.65;10.18;;;;;;;0.04;66.89;97438.78;5004827;28;20511;-76
2021/11/24 02:20:40;;;;;;;17.27;10.48;;;;;;;0.05;66.07;97437.06;5012759;28;20053;-76
2021/11/24 02:23:10;;;;;;;16.98;11.40;;;;;;;-0.04;65.88;97439.28;5012538;28;20507;-75
2021/11/24 02:25:38;;;;;;;17.50;10.68;;;;;;;-0.06;66.40;97433.41;5012793;28;20049;-76
2021/11/24 02:28:06;;;;;;;14.77;10.27;;;;;;;-0.04;66.14;97431.56;5012489;28;20061;-74
2021/11/24 02:30:34;;;;;;;15.50;10.55;;;;;;;-0.02;65.99;97429.75;5012342;28;20062;-76
2021/11/24 02:33:02;;;;;;;14.75;9.82;;;;;;;-0.03;65.89;97417.00;5012444;28;20053;-75
2021/11/24 02:35:30;;;;;;;16.30;10.18;;;;;;;-0.05;66.25;97424.78;5012285;28;20060;-76
2021/11/24 02:38:02;;;;;;;13.98;9.70;;;;;;;-0.02;65.84;97416.91;5012249;28;20125;-74
2021/11/24 02:40:31;;;;;;;12.70;7.30;;;;;;;-0.04;65.57;97410.25;5012675;28;20050;-76
2021/11/24 02:42:59;;;;;;;13.68;9.00;;;;;;;-0.05;65.92;97411.16;5012404;28;20054;-76
2021/11/24 02:45:27;;;;;;;11.90;8.60;;;;;;;-0.03;66.06;97410.13;5012322;28;20053;-76
2021/11/24 02:47:55;;;;;;;12.63;8.23;;;;;;;0.00;66.40;97409.13;5012392;28;20046;-76
2021/11/24 02:50:23;;;;;;;13.90;8.57;;;;;;;0.03;67.06;97405.56;5012462;28;20057;-75
2021/11/24 02:52:51;;;;;;;9.90;7.68;;;;;;;0.11;68.44;97403.31;5012385;28;20431;-75
2021/11/24 02:55:20;;;;;;;15.63;9.18;;;;;;;0.14;68.55;97400.56;5012158;28;20499;-75
2021/11/24 02:57:50;;;;;;;11.63;8.50;;;;;;;0.12;66.62;97399.84;5011965;28;20049;-75
2021/11/24 03:00:24;;;;;;;13.40;8.55;;;;;;;0.10;67.56;97402.50;5012316;28;20050;-75
2021/11/24 03:02:53;;;;;;;14.13;9.05;;;;;;;0.10;66.89;97411.94;5012348;28;20431;-75
2021/11/24 03:05:23;;;;;;;10.77;8.20;;;;;;;-0.04;65.87;97405.94;5012214;28;20100;-75
2021/11/24 03:07:54;;;;;;;13.38;8.80;;;;;;;-0.14;66.61;97407.41;5011817;28;20116;-76
2021/11/24 03:10:23;;;;;;;13.63;7.70;;;;;;;-0.16;66.67;97398.16;5012333;28;20050;-74
2021/11/24 03:12:50;;;;;;;12.73;8.70;;;;;;;-0.21;66.61;97390.78;5011918;28;20073;-75
2021/11/24 03:15:18;;;;;;;11.98;8.45;;;;;;;-0.22;66.73;97400.22;5012057;28;20054;-75
2021/11/24 03:17:45;;;;;;;13.18;9.10;;;;;;;-0.19;66.86;97394.06;5015695;28;20054;-76
2021/11/24 03:20:14;;;;;;;15.68;9.45;;;;;;;-0.18;66.51;97395.69;5042236;23;20058;-84
2021/11/24 03:22:44;;;;;;;18.02;9.73;;;;;;;-0.28;66.59;97386.94;5025636;28;20100;-83
2021/11/24 03:25:15;;;;;;;13.68;10.10;;;;;;;-0.38;66.47;97389.25;5024049;28;20410;-82
2021/11/24 03:27:46;;;;;;;15.15;9.32;;;;;;;-0.39;67.06;97391.88;5026935;28;20046;-84
2021/11/24 03:30:21;;;;;;;14.38;8.82;;;;;;;-0.34;67.73;97388.13;5028725;28;20104;-84
2021/11/24 03:32:52;;;;;;;17.35;9.40;;;;;;;-0.26;67.17;97382.56;5025566;28;20084;-83
2021/11/24 03:35:23;;;;;;;14.50;9.95;;;;;;;-0.21;67.35;97383.06;5025588;28;20119;-83
2021/11/24 03:37:54;;;;;;;13.80;9.20;;;;;;;-0.20;66.91;97379.56;5024133;28;20112;-83
2021/11/24 03:40:26;;;;;;;17.98;10.40;;;;;;;-0.22;66.46;97376.28;5025765;28;20097;-83
2021/11/24 03:42:58;;;;;;;16.02;10.15;;;;;;;-0.16;69.09;97383.59;5025026;28;20057;-86
2021/11/24 03:45:29;;;;;;;;;;;;;;;-0.11;67.35;97371.34;5028940;28;20053;-87
2021/11/24 03:48:01;;;;;;;17.83;9.38;;;;;;;-0.21;66.69;97377.94;5028322;28;19922;-85
2021/11/24 03:50:33;;;;;;;14.88;9.98;;;;;;;-0.29;66.79;97367.34;5028768;28;20059;-85
2021/11/24 03:53:03;;;;;;;14.98;9.73;;;;;;;-0.23;68.15;97377.22;5029050;28;20041;-85
2021/11/24 03:55:34;;;;;;;14.93;9.43;;;;;;;-0.15;68.89;97374.16;5029124;28;20064;-85
2021/11/24 03:58:06;;;;;;;12.07;8.38;;;;;;;-0.09;68.09;97379.75;5025484;28;20070;-83
2021/11/24 04:00:38;;;;;;;13.77;9.43;;;;;;;-0.12;67.08;97379.94;5024308;28;20057;-83
2021/11/24 04:03:10;;;;;;;13.73;8.95;;;;;;;-0.14;68.25;97375.81;5024744;28;20049;-85
2021/11/24 04:05:39;;;;;;;13.40;9.20;;;;;;;-0.10;68.19;97379.84;5024012;28;20053;-83
2021/11/24 04:08:12;;;;;;;12.35;8.65;;;;;;;-0.09;68.32;97373.78;5021314;28;20112;-85
2021/11/24 04:10:43;;;;;;;13.05;8.82;;;;;;;-0.09;68.87;97373.78;5022662;28;20075;-83
2021/11/24 04:13:17;;;;;;;14.45;9.88;;;;;;;-0.09;68.09;97369.50;5022642;28;20486;-83
2021/11/24 04:15:47;;;;;;;14.55;9.60;;;;;;;-0.11;67.35;97371.34;5024332;28;20487;-86
2021/11/24 04:18:19;;;;;;;14.73;9.73;;;;;;;-0.16;67.38;97373.34;5023401;28;20057;-83
2021/11/24 04:20:54;;;;;;;13.63;9.30;;;;;;;-0.16;68.00;97365.66;5023072;28;20080;-86
2021/11/24 04:23:27;;;;;;;15.38;9.80;;;;;;;-0.16;67.97;97362.28;5023801;28;20057;-83
2021/11/24 04:25:57;;;;;;;13.60;8.50;;;;;;;-0.19;67.12;97360.72;5020914;28;20060;-83
2021/11/24 04:28:30;;;;;;;14.07;9.80;;;;;;;-0.17;67.13;97361.47;5022536;28;20082;-87
2021/11/24 04:31:02;;;;;;;14.32;8.65;;;;;;;-0.14;67.50;97353.56;5015152;28;20100;-83
2021/11/24 04:33:33;;;;;;;16.27;9.82;;;;;;;-0.08;67.73;97352.38;5023912;28;20061;-85
2021/11/24 04:36:04;;;;;;;14.45;9.40;;;;;;;-0.05;67.92;97362.41;5023161;28;20045;-83
2021/11/24 04:38:35;;;;;;;15.00;10.05;;;;;;;-0.01;68.71;97357.00;5022367;28;20077;-83
2021/11/24 04:41:07;;;;;;;17.20;10.52;;;;;;;0.01;68.84;97353.53;5022980;28;20107;-83
2021/11/24 04:43:42;;;;;;;12.83;8.93;;;;;;;0.05;69.30;97350.66;5021558;28;20062;-83
2021/11/24 04:46:12;;;;;;;14.52;9.52;;;;;;;0.06;68.34;97346.34;5022050;28;20111;-82
2021/11/24 04:48:40;;;;;;;15.60;10.32;;;;;;;0.01;67.94;97343.25;5019420;28;20050;-83
2021/11/24 04:51:08;;;;;;;13.73;9.70;;;;;;;-0.01;67.98;97346.72;5018674;28;20096;-82
2021/11/24 04:53:36;;;;;;;14.68;8.93;;;;;;;0.03;68.75;97344.00;5016567;28;20052;-81
2021/11/24 04:56:04;;;;;;;19.38;12.00;;;;;;;0.06;68.86;97347.16;5016285;28;20061;-80
2021/11/24 04:58:34;;;;;;;23.50;12.73;;;;;;;0.07;68.48;97343.69;5016985;28;20052;-81
2021/11/24 05:01:03;;;;;;;25.02;14.05;;;;;;;0.06;68.44;97341.22;5017637;28;20065;-82
2021/11/24 05:03:34;;;;;;;22.67;13.32;;;;;;;0.06;68.55;97339.47;5018259;28;20050;-83
2021/11/24 05:06:04;;;;;;;21.60;11.63;;;;;;;0.09;68.60;97339.28;5016597;28;20078;-80
2021/11/24 05:08:34;;;;;;;20.67;11.18;;;;;;;0.06;68.30;97336.09;5015465;28;20054;-80
2021/11/24 05:11:02;;;;;;;20.63;11.10;;;;;;;0.02;68.21;97340.56;5015674;28;20050;-79
2021/11/24 05:13:31;;;;;;;18.42;10.50;;;;;;;0.01;68.26;97340.69;5015600;28;20410;-80
2021/11/24 05:16:02;;;;;;;16.77;10.05;;;;;;;0.03;68.49;97333.72;5015737;28;20053;-80
2021/11/24 05:18:35;;;;;;;15.85;9.68;;;;;;;0.08;69.30;97339.38;5015747;28;20061;-80
2021/11/24 05:21:07;;;;;;;16.13;10.45;;;;;;;0.11;68.86;97344.31;5016320;28;20058;-82
2021/11/24 05:23:39;;;;;;;16.15;10.35;;;;;;;0.11;69.66;97345.16;5000677;28;20060;-81
2021/11/24 05:26:06;;;;;;;16.08;9.65;;;;;;;0.17;69.95;97343.91;5014190;28;20443;-79
2021/11/24 05:28:34;;;;;;;14.88;10.88;;;;;;;0.22;69.73;97347.03;5014831;28;20053;-79
2021/11/24 05:31:02;;;;;;;14.45;9.45;;;;;;;0.25;69.67;97341.69;5014964;28;20060;-80
2021/11/24 05:33:32;;;;;;;15.02;9.63;;;;;;;0.28;69.63;97338.91;5019478;28;20046;-84
2021/11/24 05:35:59;;;;;;;16.48;10.27;;;;;;;0.34;69.78;97341.06;5034144;28;20041;-86
2021/11/24 05:38:27;;;;;;;13.90;9.32;;;;;;;0.36;69.44;97341.81;5034304;28;20049;-87
2021/11/24 05:40:54;;;;;;;15.10;9.88;;;;;;;0.38;69.93;97337.41;5030691;28;20060;-88
2021/11/24 05:43:22;;;;;;;17.05;9.73;;;;;;;0.39;69.11;97333.91;5019399;28;20049;-85
2021/11/24 05:46:10;;;;;;;17.85;9.75;;;;;;;0.41;69.83;97328.66;5018680;28;20087;-79
2021/11/24 05:48:39;;;;;;;15.63;9.32;;;;;;;0.43;70.19;97326.81;5017517;28;20113;-85
2021/11/24 05:51:07;;;;;;;15.15;9.65;;;;;;;0.44;69.34;97336.19;5016273;28;20049;-79
2021/11/24 05:53:35;;;;;;;15.52;10.02;;;;;;;0.43;69.72;97338.84;5015506;28;20056;-79
2021/11/24 05:56:03;;;;;;;19.02;11.82;;;;;;;0.41;69.15;97328.66;5015293;28;20061;-84
2021/11/24 05:58:30;;;;;;;16.90;10.73;;;;;;;0.38;69.10;97327.13;5014982;28;20507;-81
2021/11/24 06:00:58;;;;;;;18.52;11.90;;;;;;;0.36;68.91;97318.72;5014927;28;20061;-87
2021/11/24 06:03:26;;;;;;;16.80;10.27;;;;;;;0.40;69.70;97325.28;5014869;28;20081;-80
2021/11/24 06:05:55;;;;;;;27.00;14.80;;;;;;;0.48;71.25;97321.38;5015204;28;20053;-81
2021/11/24 06:08:23;;;;;;;18.05;10.43;;;;;;;0.50;69.93;97316.97;5015536;28;20064;-79
2021/11/24 06:10:50;;;;;;;16.60;10.25;;;;;;;0.51;70.15;97314.31;5015205;28;20504;-83
2021/11/24 06:13:18;;;;;;;13.63;10.43;;;;;;;0.54;69.98;97320.97;5014400;28;20304;-79
2021/11/24 06:15:46;;;;;;;15.55;9.65;;;;;;;0.53;69.33;97315.03;5014035;28;20041;-81
2021/11/24 06:18:13;;;;;;;14.15;10.30;;;;;;;0.53;70.11;97309.91;5014621;28;20052;-81
2021/11/24 06:20:41;;;;;;;18.95;10.98;;;;;;;0.59;70.39;97312.06;5014000;28;20058;-79
2021/11/24 06:23:10;;;;;;;16.45;10.25;;;;;;;0.64;70.70;97316.91;5014531;28;20057;-80
2021/11/24 06:25:38;;;;;;;16.42;10.77;;;;;;;0.65;69.93;97310.81;5013558;28;20054;-81
2021/11/24 06:28:06;;;;;;;15.88;10.23;;;;;;;0.66;70.54;97304.78;5013366;28;20056;-79
2021/11/24 06:30:34;;;;;;;26.15;13.20;;;;;;;0.66;70.14;97302.22;5013578;28;20049;-80
2021/11/24 06:33:02;;;;;;;20.23;12.02;;;;;;;0.65;70.62;97299.75;5013772;28;20050;-79
2021/11/24 06:35:29;;;;;;;17.40;10.88;;;;;;;0.67;70.25;97308.16;5013874;28;20054;-81
2021/11/24 06:37:57;;;;;;;14.88;10.07;;;;;;;0.69;70.48;97306.31;5014527;28;20093;-86
2021/11/24 06:40:26;;;;;;;22.70;11.90;;;;;;;0.70;70.37;97308.78;5015312;28;20054;-87
2021/11/24 06:42:54;;;;;;;19.70;10.10;;;;;;;0.71;70.42;97307.84;5014432;28;20050;-86
2021/11/24 06:45:22;;;;;;;18.80;10.68;;;;;;;0.76;70.83;97315.25;5014436;28;20050;-84
2021/11/24 06:47:50;;;;;;;17.88;10.25;;;;;;;0.83;71.22;97316.47;5013983;28;20419;-82
2021/11/24 06:50:17;;;;;;;21.23;10.77;;;;;;;0.88;71.18;97306.72;5013035;28;20488;-85
2021/11/24 06:52:45;;;;;;;15.55;10.38;;;;;;;0.94;71.27;97308.03;5013815;28;20062;-85
2021/11/24 06:55:13;;;;;;;21.80;11.30;;;;;;;0.97;70.78;97312.97;5014079;28;20054;-86
2021/11/24 06:57:42;;;;;;;14.32;10.52;;;;;;;1.00;71.63;97299.91;5014187;28;20061;-82
2021/11/24 07:00:11;;;;;;;15.63;10.55;;;;;;;1.06;71.51;97298.69;5014683;28;20463;-85
2021/11/24 07:02:39;;;;;;;35.13;11.80;;;;;;;1.08;70.69;97300.22;5014562;28;20056;-86
2021/11/24 07:05:09;;;;;;;21.42;12.32;;;;;;;1.09;70.67;97301.84;5014429;28;20510;-81
2021/11/24 07:07:36;;;;;;;16.48;10.43;;;;;;;1.13;71.46;97300.72;5014227;28;20053;-84
2021/11/24 07:10:05;;;;;;;17.95;11.50;;;;;;;1.16;71.72;97303.09;5014234;28;20053;-86
2021/11/24 07:12:32;;;;;;;67.18;32.92;;;;;;;1.18;70.81;97300.41;5013462;28;20518;-79
2021/11/24 07:15:01;;;;;;;56.40;30.05;;;;;;;1.19;71.35;97297.72;5013807;28;20459;-85
2021/11/24 07:17:29;;;;;;;51.17;29.17;;;;;;;1.22;71.37;97300.09;5014792;28;20046;-84
2021/11/24 07:19:57;;;;;;;61.75;31.20;;;;;;;1.23;71.10;97304.31;5015125;28;20050;-81
2021/11/24 07:22:24;;;;;;;50.35;28.98;;;;;;;1.25;71.30;97301.63;5014846;28;20050;-84
2021/11/24 07:24:57;;;;;;;49.78;26.83;;;;;;;1.32;71.57;97302.03;5014107;28;20060;-81
2021/11/24 07:27:24;;;;;;;38.13;21.85;;;;;;;1.36;71.44;97303.47;5013894;28;20046;-80
2021/11/24 07:29:52;;;;;;;31.63;17.08;;;;;;;1.37;71.45;97299.94;5014219;28;20145;-87
2021/11/24 07:32:21;;;;;;;22.60;14.02;;;;;;;1.40;71.48;97300.56;5014421;28;20050;-83
2021/11/24 07:34:48;;;;;;;24.90;13.60;;;;;;;1.44;71.15;97299.44;5014472;28;20052;-83
2021/11/24 07:37:16;;;;;;;20.05;12.32;;;;;;;1.47;70.92;97300.97;5014298;28;20062;-81
2021/11/24 07:39:44;;;;;;;26.02;13.80;;;;;;;1.46;70.97;97296.72;5014604;28;20423;-81
2021/11/24 07:42:11;;;;;;;28.63;16.38;;;;;;;1.48;70.92;97305.16;5014935;28;20057;-85
2021/11/24 07:44:39;;;;;;;25.50;13.90;;;;;;;1.52;70.84;97288.59;5014783;28;20054;-82
2021/11/24 07:47:07;;;;;;;28.67;13.98;;;;;;;1.57;71.17;97289.06;5015479;28;20064;-81
2021/11/24 07:49:36;;;;;;;21.23;12.93;;;;;;;1.61;70.94;97287.13;5017413;28;20049;-85
2021/11/24 07:52:04;;;;;;;23.67;13.43;;;;;;;1.65;71.78;97281.66;5017389;28;20054;-80
2021/11/24 07:54:32;;;;;;;23.95;13.13;;;;;;;1.70;71.80;97273.59;5014731;28;20514;-84
2021/11/24 07:57:00;;;;;;;31.83;13.60;;;;;;;1.74;71.44;97276.78;5015082;28;20065;-83
2021/11/24 07:59:28;;;;;;;24.75;12.85;;;;;;;1.76;71.44;97275.72;5015003;28;20042;-82
2021/11/24 08:01:55;;;;;;;17.95;10.52;;;;;;;1.80;71.30;97276.34;5015381;28;20492;-80
2021/11/24 08:04:23;;;;;;;18.60;10.70;;;;;;;1.82;71.38;97274.50;5018039;28;20055;-79
2021/11/24 08:06:52;;;;;;;19.48;12.30;;;;;;;1.87;71.93;97280.09;5017889;28;20060;-84
2021/11/24 08:09:20;;;;;;;26.50;13.85;;;;;;;1.91;71.52;97276.38;5017905;28;20045;-78
2021/11/24 08:11:47;;;;;;;23.50;12.77;;;;;;;1.94;71.72;97268.44;5017782;28;20492;-79
2021/11/24 08:14:15;;;;;;;21.58;12.05;;;;;;;2.00;71.49;97272.31;5017696;28;20046;-83
2021/11/24 08:16:42;;;;;;;22.60;13.05;;;;;;;2.00;71.20;97275.72;5017913;28;20058;-83
2021/11/24 08:19:10;;;;;;;15.93;10.82;;;;;;;2.01;71.57;97261.94;5017846;28;20042;-80
2021/11/24 08:21:38;;;;;;;17.33;10.63;;;;;;;2.04;71.57;97260.88;5017862;28;20057;-82
2021/11/24 08:24:07;;;;;;;22.13;11.57;;;;;;;2.04;71.42;97256.56;5017735;28;20491;-80
2021/11/24 08:26:35;;;;;;;18.05;9.73;;;;;;;2.05;71.48;97253.03;5017591;28;20056;-78
2021/11/24 08:29:03;;;;;;;25.25;11.43;;;;;;;2.08;71.47;97248.59;5017532;28;20529;-78
2021/11/24 08:31:30;;;;;;;17.58;10.68;;;;;;;2.09;71.72;97242.53;5017036;28;20077;-82
2021/11/24 08:33:58;;;;;;;18.08;10.07;;;;;;;2.12;71.33;97242.28;5017311;28;20526;-80
2021/11/24 08:36:25;;;;;;;13.75;9.70;;;;;;;2.15;71.24;97237.75;5017247;28;20054;-83
2021/11/24 08:38:57;;;;;;;15.15;9.68;;;;;;;2.24;71.34;97249.13;5016988;28;20096;-79
2021/11/24 08:41:43;;;;;;;14.45;9.50;;;;;;;2.30;71.25;97242.72;5017363;28;20220;-82
2021/11/24 08:44:11;;;;;;;15.18;10.00;;;;;;;2.34;71.05;97241.50;5017453;28;20058;-79
2021/11/24 08:46:39;;;;;;;17.40;10.23;;;;;;;2.37;70.70;97249.03;5018241;28;20056;-82
2021/11/24 08:49:07;;;;;;;13.40;9.68;;;;;;;2.39;70.73;97242.81;5019620;28;20053;-81
2021/11/24 08:51:35;;;;;;;14.05;9.48;;;;;;;2.41;70.85;97243.53;5018905;28;20137;-82
2021/11/24 08:54:06;;;;;;;12.13;9.10;;;;;;;2.44;70.87;97240.72;5016939;28;20064;-81
2021/11/24 08:56:35;;;;;;;15.43;11.02;;;;;;;2.42;70.50;97242.59;5016480;28;20057;-79
2021/11/24 08:59:05;;;;;;;15.27;10.40;;;;;;;2.42;70.95;97237.44;5017281;28;20065;-78
2021/11/24 09:01:33;;;;;;;14.60;10.60;;;;;;;2.46;71.71;97238.84;5018670;28;20138;-81
2021/11/24 09:04:02;;;;;;;13.65;9.88;;;;;;;2.52;71.61;97236.75;5017756;28;20050;-79
2021/11/24 09:06:31;;;;;;;17.05;11.88;;;;;;;2.54;71.18;97234.91;5016820;28;20056;-80
2021/11/24 09:08:58;;;;;;;14.32;9.82;;;;;;;2.58;70.89;97236.28;5017022;28;20053;-79
2021/11/24 09:11:26;;;;;;;15.32;10.20;;;;;;;2.64;70.49;97230.66;5017410;28;20515;-79
2021/11/24 09:13:53;;;;;;;15.50;10.43;;;;;;;2.68;70.44;97225.16;5016637;28;20053;-79
2021/11/24 09:16:22;;;;;;;13.60;10.63;;;;;;;2.70;70.23;97222.47;5024425;28;20049;-83
2021/11/24 09:18:50;;;;;;;15.68;10.60;;;;;;;2.73;70.68;97222.22;5029071;28;20100;-80
2021/11/24 09:21:19;;;;;;;14.98;10.75;;;;;;;2.76;70.39;97219.44;5017419;23;20054;-76
2021/11/24 09:23:49;;;;;;;16.00;11.45;;;;;;;2.77;69.91;97213.34;5014611;28;20053;-76
2021/11/24 09:26:19;;;;;;;14.68;11.13;;;;;;;2.77;70.19;97218.50;5014430;28;20049;-76
2021/11/24 09:28:47;;;;;;;17.52;11.65;;;;;;;2.79;70.13;97223.53;5014611;28;20057;-76
2021/11/24 09:31:15;;;;;;;15.38;10.95;;;;;;;2.79;69.59;97219.19;5014424;28;20430;-76
2021/11/24 09:33:44;;;;;;;14.52;10.82;;;;;;;2.79;70.12;97216.63;5014320;28;20049;-76
2021/11/24 09:36:12;;;;;;;17.88;11.98;;;;;;;2.82;69.44;97218.97;5014013;28;20060;-76
2021/11/24 09:38:41;;;;;;;15.68;11.05;;;;;;;2.83;69.25;97207.72;5014636;28;20053;-76
2021/11/24 09:41:12;;;;;;;17.33;10.88;;;;;;;2.86;69.12;97194.63;5014538;28;20054;-76
2021/11/24 09:43:47;;;;;;;19.25;12.25;;;;;;;2.87;69.58;97195.44;5014872;28;20404;-76
2021/11/24 09:46:17;;;;;;;16.23;11.60;;;;;;;2.91;68.86;97198.56;5014528;28;20065;-76
2021/11/24 09:48:49;;;;;;;16.63;11.82;;;;;;;2.92;68.76;97183.00;5015555;28;20058;-76
2021/11/24 09:51:18;;;;;;;16.70;12.80;;;;;;;2.94;68.78;97182.88;5014511;28;20518;-76
2021/11/24 09:53:48;;;;;;;14.60;10.93;;;;;;;2.92;68.55;97174.44;5014098;28;20042;-76
2021/11/24 09:56:17;;;;;;;14.43;10.35;;;;;;;2.91;68.60;97170.22;5014022;28;20042;-77
2021/11/24 09:58:49;;;;;;;15.15;10.68;;;;;;;2.91;68.90;97163.34;5014221;28;20471;-76
2021/11/24 10:01:17;;;;;;;18.05;11.32;;;;;;;2.92;68.33;97166.72;5014058;28;20054;-76
2021/11/24 10:03:46;;;;;;;18.88;11.40;;;;;;;2.89;68.66;97160.88;5014905;28;20419;-76
2021/11/24 10:06:14;;;;;;;14.65;10.63;;;;;;;2.91;69.87;97160.75;5013768;28;20057;-76
2021/11/24 10:08:58;;;;;;;28.13;11.05;;;;;;;3.00;69.07;97151.47;5013842;28;20056;-76
2021/11/24 10:11:25;;;;;;;17.60;10.02;;;;;;;3.07;69.54;97150.06;5013791;28;20396;-76
2021/11/24 10:13:54;;;;;;;14.18;9.85;;;;;;;3.14;68.75;97151.19;5015828;28;20061;-76
2021/11/24 10:16:24;;;;;;;15.95;10.13;;;;;;;3.18;67.89;97144.84;5015521;28;20132;-76
2021/11/24 10:19:01;;;;;;;13.63;9.50;;;;;;;3.16;68.55;97144.16;5017982;28;20049;-76
2021/11/24 10:21:29;;;;;;;18.45;9.35;;;;;;;3.16;67.78;97138.19;5014054;28;20057;-76
2021/11/24 10:24:01;;;;;;;15.20;9.30;;;;;;;3.18;67.22;97142.28;5005910;28;20470;-76
2021/11/24 10:26:32;;;;;;;15.55;9.23;;;;;;;3.21;68.04;97131.72;5013560;28;20058;-76
2021/11/24 10:29:08;;;;;;;11.55;8.38;;;;;;;3.38;67.44;97127.78;5013789;28;20057;-76
2021/11/24 10:31:39;;;;;;;11.50;7.97;;;;;;;3.55;66.61;97126.44;5013608;28;20419;-76
2021/11/24 10:34:16;;;;;;;11.90;8.52;;;;;;;3.68;65.98;97108.19;5014181;28;20042;-76
2021/11/24 10:37:00;;;;;;;14.82;8.30;;;;;;;3.85;65.50;97112.78;5013080;28;20046;-76
2021/11/24 10:39:32;;;;;;;10.68;7.65;;;;;;;4.00;65.79;97097.78;5013422;28;20054;-76
2021/11/24 10:42:08;;;;;;;14.43;7.95;;;;;;;4.16;65.60;97094.72;5013290;28;20060;-76
2021/11/24 10:44:37;;;;;;;13.55;8.30;;;;;;;4.33;65.40;97093.31;5013207;28;20069;-76
2021/11/24 10:47:07;;;;;;;12.90;7.97;;;;;;;4.50;65.42;97084.09;5012815;28;20049;-77
2021/11/24 10:49:42;;;;;;;10.43;7.60;;;;;;;4.68;64.80;97084.28;5013045;28;20490;-76
2021/11/24 10:52:15;;;;;;;11.10;7.97;;;;;;;4.82;63.45;97086.50;5013063;28;20053;-76
2021/11/24 10:54:45;;;;;;;14.50;8.10;;;;;;;4.90;63.14;97075.50;5013104;28;20050;-76
2021/11/24 10:57:13;;;;;;;16.88;9.00;;;;;;;5.00;63.61;97080.66;5012283;28;20061;-77
2021/11/24 10:59:44;;;;;;;12.25;7.72;;;;;;;5.13;63.36;97068.28;5012977;28;20053;-77
2021/11/24 11:02:17;;;;;;;15.15;7.78;;;;;;;5.27;61.97;97061.88;5012892;28;20054;-77
2021/11/24 11:05:01;;;;;;;12.05;8.02;;;;;;;5.41;61.17;97058.88;5013164;28;20136;-77
2021/11/24 11:07:30;;;;;;;11.77;7.80;;;;;;;5.51;61.07;97058.84;5012278;28;20057;-77
2021/11/24 11:10:17;;;;;;;9.43;7.30;;;;;;;5.62;61.72;97056.13;5012453;28;20056;-76
2021/11/24 11:12:47;;;;;;;15.20;10.35;;;;;;;5.75;61.21;97051.47;5012707;28;20062;-77
2021/11/24 11:15:25;;;;;;;13.68;8.27;;;;;;;5.90;59.62;97043.22;5012555;28;20050;-77
2021/11/24 11:18:15;;;;;;;10.32;8.27;;;;;;;5.97;58.61;97040.00;5012119;28;20530;-77
2021/11/24 11:20:51;;;;;;;11.20;8.27;;;;;;;6.05;58.73;97041.84;5012567;28;20053;-76
2021/11/24 11:23:22;;;;;;;10.27;7.80;;;;;;;6.16;59.26;97033.09;5012668;28;20081;-77
2021/11/24 11:25:53;;;;;;;14.02;8.25;;;;;;;6.22;58.66;97032.50;5012275;28;20061;-77
2021/11/24 11:28:22;;;;;;;11.18;8.10;;;;;;;6.26;58.58;97027.88;5013945;28;20046;-77
2021/11/24 11:30:51;;;;;;;10.98;7.90;;;;;;;6.33;59.49;97023.75;5012766;28;20054;-77
2021/11/24 11:33:21;;;;;;;10.32;8.07;;;;;;;6.45;59.05;97025.19;5012703;28;20100;-77
2021/11/24 11:35:50;;;;;;;9.90;7.97;;;;;;;6.54;58.08;97021.72;5012688;28;20057;-77
2021/11/24 11:38:20;;;;;;;11.82;9.10;;;;;;;6.54;57.18;97013.94;5015194;28;20050;-77